createdAt,value
2023-03-16T00:02:16.297Z,3.00
2023-03-16T00:05:03.234Z,3.15
2023-03-16T00:07:50.652Z,3.05
2023-03-16T00:10:37.774Z,3.20
2023-03-16T00:13:26.194Z,3.20
2023-03-16T00:16:15.208Z,2.90
2023-03-16T00:19:03.451Z,3.25
2023-03-16T00:21:52.308Z,2.77
2023-03-16T00:24:39.791Z,3.17
2023-03-16T00:27:27.999Z,3.55
2023-03-16T00:30:15.455Z,3.12
2023-03-16T00:33:03.398Z,3.22
2023-03-16T00:35:50.841Z,2.92
2023-03-16T00:38:40.576Z,3.27
2023-03-16T00:41:27.933Z,3.47
2023-03-16T00:44:15.242Z,2.58
2023-03-16T00:47:02.645Z,3.08
2023-03-16T00:49:49.901Z,3.42
2023-03-16T00:52:37.132Z,3.17
2023-03-16T00:55:24.136Z,3.40
2023-03-16T00:58:12.861Z,3.95
2023-03-16T01:01:02.077Z,3.15
2023-03-16T01:03:49.413Z,2.75
2023-03-16T01:06:38.776Z,3.42
2023-03-16T01:09:25.164Z,3.05
2023-03-16T01:12:15.438Z,3.75
2023-03-16T01:15:03.233Z,3.70
2023-03-16T01:17:51.762Z,3.00
2023-03-16T01:20:39.259Z,3.52
2023-03-16T01:23:26.624Z,3.70
2023-03-16T01:26:15.558Z,3.98
2023-03-16T01:29:02.946Z,3.67
2023-03-16T01:31:50.376Z,3.67
2023-03-16T01:34:37.573Z,3.72
2023-03-16T01:37:25.096Z,3.50
2023-03-16T01:40:12.851Z,3.72
2023-03-16T01:43:04.336Z,4.47
2023-03-16T01:46:09.352Z,4.50
2023-03-16T01:49:05.528Z,4.00
2023-03-16T01:52:07.644Z,4.30
2023-03-16T01:55:08.376Z,4.45
2023-03-16T01:57:56.415Z,4.00
2023-03-16T02:00:45.307Z,3.77
2023-03-16T02:03:35.074Z,4.47
2023-03-16T02:06:24.270Z,4.40
2023-03-16T02:09:12.321Z,4.10
2023-03-16T02:12:01.212Z,4.00
2023-03-16T02:14:51.022Z,4.40
2023-03-16T02:17:38.425Z,4.40
2023-03-16T02:20:45.081Z,4.95
2023-03-16T02:23:32.618Z,4.87
2023-03-16T02:26:53.530Z,4.62
2023-03-16T02:29:59.225Z,4.87
2023-03-16T02:32:48.313Z,4.67
2023-03-16T02:35:35.340Z,4.80
2023-03-16T02:38:23.022Z,4.95
2023-03-16T02:41:18.318Z,5.22
2023-03-16T02:44:12.794Z,5.87
2023-03-16T02:47:03.204Z,5.40
2023-03-16T02:49:50.304Z,5.50
2023-03-16T02:52:38.180Z,5.55
2023-03-16T02:55:25.576Z,5.45
2023-03-16T02:58:13.517Z,5.50
2023-03-16T03:01:01.430Z,4.97
2023-03-16T03:03:48.642Z,4.83
2023-03-16T03:06:35.673Z,5.08
2023-03-16T03:09:23.081Z,5.83
2023-03-16T03:12:11.066Z,4.90
2023-03-16T03:14:58.083Z,5.33
2023-03-16T03:17:46.138Z,5.28
2023-03-16T03:20:33.683Z,5.20
2023-03-16T03:23:20.723Z,5.20
2023-03-16T03:26:07.968Z,5.85
2023-03-16T03:28:55.417Z,7.65
2023-03-16T03:31:43.598Z,5.67
2023-03-16T03:34:31.752Z,5.70
2023-03-16T03:37:19.124Z,7.55
2023-03-16T03:40:07.759Z,6.87
2023-03-16T03:42:54.842Z,5.85
2023-03-16T03:45:42.037Z,6.78
2023-03-16T03:48:29.717Z,6.85
2023-03-16T03:51:17.298Z,5.72
2023-03-16T03:54:04.541Z,6.55
2023-03-16T03:56:53.286Z,6.53
2023-03-16T03:59:42.259Z,9.00
2023-03-16T04:02:29.555Z,7.35
2023-03-16T04:05:16.704Z,6.50
2023-03-16T04:08:04.263Z,7.75
2023-03-16T04:10:51.348Z,6.92
2023-03-16T04:13:38.824Z,6.80
2023-03-16T04:16:27.082Z,7.30
2023-03-16T04:19:14.208Z,7.12
2023-03-16T04:22:01.935Z,7.72
2023-03-16T04:24:49.125Z,7.10
2023-03-16T04:27:37.790Z,7.08
2023-03-16T04:30:24.850Z,7.50
2023-03-16T04:33:12.478Z,7.83
2023-03-16T04:36:00.024Z,8.35
2023-03-16T04:38:47.570Z,8.83
2023-03-16T04:41:35.245Z,7.87
2023-03-16T04:44:22.708Z,8.58
2023-03-16T04:47:10.066Z,7.80
2023-03-16T04:49:57.283Z,7.30
2023-03-16T04:52:44.486Z,7.33
2023-03-16T04:55:34.486Z,8.03
2023-03-16T04:58:22.711Z,9.20
2023-03-16T05:01:09.961Z,8.60
2023-03-16T05:03:59.675Z,8.10
2023-03-16T05:06:46.667Z,8.10
2023-03-16T05:09:33.996Z,8.78
2023-03-16T05:12:21.345Z,7.78
2023-03-16T05:15:09.497Z,8.83
2023-03-16T05:17:56.903Z,8.95
2023-03-16T05:20:44.532Z,8.73
2023-03-16T05:23:31.509Z,8.40
2023-03-16T05:26:19.192Z,8.53
2023-03-16T05:29:06.556Z,8.33
2023-03-16T05:31:54.089Z,9.00
2023-03-16T05:34:43.279Z,9.20
2023-03-16T05:37:31.155Z,8.23
2023-03-16T05:40:18.819Z,8.30
2023-03-16T05:43:05.893Z,8.88
2023-03-16T05:45:53.036Z,9.48
2023-03-16T05:48:40.423Z,8.90
2023-03-16T05:51:27.620Z,8.30
2023-03-16T05:54:14.660Z,9.50
2023-03-16T05:57:02.241Z,9.20
2023-03-16T05:59:50.510Z,9.43
2023-03-16T06:02:38.808Z,9.78
2023-03-16T06:05:27.830Z,9.13
2023-03-16T06:08:15.358Z,9.40
2023-03-16T06:11:02.968Z,9.48
2023-03-16T06:13:50.373Z,9.60
2023-03-16T06:16:37.661Z,9.18
2023-03-16T06:19:24.910Z,9.95
2023-03-16T06:22:12.472Z,9.65
2023-03-16T06:24:59.961Z,11.05
2023-03-16T06:27:49.376Z,10.58
2023-03-16T06:30:36.595Z,11.03
2023-03-16T06:33:23.716Z,10.53
2023-03-16T06:36:11.740Z,11.22
2023-03-16T06:38:59.005Z,11.18
2023-03-16T06:41:46.335Z,10.55
2023-03-16T06:44:33.686Z,11.75
2023-03-16T06:47:21.823Z,10.95
2023-03-16T06:50:09.434Z,9.90
2023-03-16T06:52:56.284Z,10.70
2023-03-16T06:55:44.074Z,11.50
2023-03-16T06:58:31.350Z,12.03
2023-03-16T07:01:18.329Z,10.58
2023-03-16T07:04:05.492Z,11.20
2023-03-16T07:06:52.974Z,11.65
2023-03-16T07:09:41.863Z,11.03
2023-03-16T07:12:28.684Z,10.85
2023-03-16T07:15:16.157Z,10.38
2023-03-16T07:18:03.369Z,10.82
2023-03-16T07:20:50.336Z,10.30
2023-03-16T07:23:37.770Z,8.93
2023-03-16T07:26:25.355Z,10.08
2023-03-16T07:29:13.879Z,10.05
2023-03-16T07:32:01.310Z,10.20
2023-03-16T07:34:48.606Z,9.33
2023-03-16T07:37:36.781Z,10.13
2023-03-16T07:40:23.806Z,10.13
2023-03-16T07:43:11.217Z,10.08
2023-03-16T07:45:58.387Z,9.83
2023-03-16T07:48:46.384Z,9.28
2023-03-16T07:51:33.671Z,9.48
2023-03-16T07:54:20.890Z,9.80
2023-03-16T07:57:09.075Z,9.35
2023-03-16T07:59:56.066Z,10.50
2023-03-16T08:02:43.487Z,9.95
2023-03-16T08:05:32.454Z,9.80
2023-03-16T08:08:19.554Z,10.32
2023-03-16T08:11:06.694Z,9.83
2023-03-16T08:13:57.803Z,11.40
2023-03-16T08:16:44.521Z,9.75
2023-03-16T08:19:32.455Z,9.68
2023-03-16T08:22:20.856Z,10.40
2023-03-16T08:25:12.286Z,10.03
2023-03-16T08:27:59.393Z,10.60
2023-03-16T08:30:51.849Z,9.68
2023-03-16T08:33:39.580Z,9.75
2023-03-16T08:36:28.786Z,9.70
2023-03-16T08:39:18.868Z,9.48
2023-03-16T08:42:07.481Z,10.00
2023-03-16T08:44:55.105Z,9.65
2023-03-16T08:47:42.506Z,9.80
2023-03-16T08:50:30.059Z,9.40
2023-03-16T08:53:17.225Z,9.20
2023-03-16T08:56:06.707Z,8.93
2023-03-16T08:58:54.127Z,9.33
2023-03-16T09:01:42.594Z,10.48
2023-03-16T09:04:30.353Z,9.40
2023-03-16T09:07:18.675Z,9.53
2023-03-16T09:10:11.578Z,9.13
2023-03-16T09:12:58.853Z,9.55
2023-03-16T09:15:46.305Z,8.85
2023-03-16T09:18:35.143Z,9.23
2023-03-16T09:21:23.293Z,8.35
2023-03-16T09:24:10.258Z,8.28
2023-03-16T09:26:57.495Z,8.88
2023-03-16T09:29:45.291Z,8.15
2023-03-16T09:32:33.499Z,7.83
2023-03-16T09:35:20.607Z,8.58
2023-03-16T09:38:08.115Z,7.87
2023-03-16T09:41:09.481Z,7.25
2023-03-16T09:44:11.814Z,7.22
2023-03-16T09:47:02.341Z,7.35
2023-03-16T09:49:52.159Z,7.37
2023-03-16T09:52:48.299Z,7.30
2023-03-16T09:55:38.711Z,7.05
2023-03-16T09:58:27.057Z,6.87
2023-03-16T10:01:25.761Z,6.10
2023-03-16T10:04:19.536Z,6.65
2023-03-16T10:07:09.750Z,6.22
2023-03-16T10:10:00.325Z,7.03
2023-03-16T10:12:50.525Z,6.17
2023-03-16T10:15:39.747Z,6.50
2023-03-16T10:18:30.189Z,6.80
2023-03-16T10:21:19.622Z,5.67
2023-03-16T10:24:13.462Z,6.10
2023-03-16T10:27:01.483Z,6.47
2023-03-16T10:29:48.842Z,6.75
2023-03-16T10:32:36.806Z,6.20
2023-03-16T10:35:48.324Z,6.20
2023-03-16T10:38:55.110Z,5.70
2023-03-16T10:41:45.830Z,5.40
2023-03-16T10:44:33.358Z,6.08
2023-03-16T10:47:26.138Z,5.90
2023-03-16T10:50:20.572Z,6.42
2023-03-16T10:53:26.369Z,5.70
2023-03-16T10:56:22.516Z,5.53
2023-03-16T10:59:18.230Z,6.90
2023-03-16T11:02:20.457Z,5.67
2023-03-16T11:05:16.178Z,5.65
2023-03-16T11:08:12.179Z,5.65
2023-03-16T11:11:02.477Z,5.08
2023-03-16T11:13:50.035Z,5.30
2023-03-16T11:16:43.344Z,4.50
2023-03-16T11:19:51.914Z,4.55
2023-03-16T11:22:40.622Z,4.45
2023-03-16T11:25:41.538Z,4.33
2023-03-16T11:28:34.819Z,4.37
2023-03-16T11:31:27.036Z,5.17
2023-03-16T11:34:18.696Z,10.13
2023-03-16T11:37:21.574Z,5.08
2023-03-16T11:40:20.130Z,4.62
2023-03-16T11:43:22.261Z,4.62
2023-03-16T11:46:12.667Z,4.67
2023-03-16T11:49:19.521Z,4.92
2023-03-16T11:52:16.607Z,5.03
2023-03-16T11:58:17.119Z,3.90
2023-03-16T12:01:14.167Z,4.12
2023-03-16T12:04:16.177Z,4.53
2023-03-16T12:07:08.369Z,4.50
2023-03-16T12:10:02.168Z,4.05
2023-03-16T12:12:58.292Z,4.22
2023-03-16T12:15:48.542Z,4.55
2023-03-16T12:18:38.971Z,4.95
2023-03-16T12:21:44.570Z,4.22
2023-03-16T12:24:34.741Z,3.98
2023-03-16T12:27:27.264Z,4.17
2023-03-16T12:30:45.317Z,3.65
2023-03-16T12:33:50.390Z,3.70
2023-03-16T12:36:43.371Z,4.25
2023-03-16T12:39:51.368Z,4.40
2023-03-16T12:42:45.456Z,3.90
2023-03-16T12:45:37.015Z,4.05
2023-03-16T12:48:33.801Z,3.72
2023-03-16T12:51:20.981Z,3.92
2023-03-16T12:54:10.180Z,4.25
2023-03-16T12:57:08.558Z,3.72
2023-03-16T12:59:58.920Z,4.12
2023-03-16T13:02:52.329Z,3.58
2023-03-16T13:05:42.373Z,3.62
2023-03-16T13:08:31.402Z,3.60
2023-03-16T13:11:18.593Z,4.40
2023-03-16T13:14:10.438Z,4.17
2023-03-16T13:17:09.275Z,3.70
2023-03-16T13:20:06.577Z,4.05
2023-03-16T13:23:05.438Z,5.97
2023-03-16T13:26:08.937Z,3.80
2023-03-16T13:28:56.660Z,3.85
2023-03-16T13:31:44.409Z,3.70
2023-03-16T13:34:51.902Z,3.00
2023-03-16T13:37:41.662Z,3.40
2023-03-16T13:40:29.199Z,3.55
2023-03-16T13:43:22.862Z,3.50
2023-03-16T13:46:22.265Z,2.90
2023-03-16T13:49:12.531Z,3.25
2023-03-16T13:51:59.800Z,3.70
2023-03-16T13:54:47.188Z,3.60
2023-03-16T13:57:40.151Z,3.50
2023-03-16T14:00:31.822Z,3.50
2023-03-16T14:03:22.284Z,3.67
2023-03-16T14:06:25.263Z,3.75
2023-03-16T14:09:18.455Z,3.72
2023-03-16T14:12:06.083Z,3.67
2023-03-16T14:14:55.737Z,3.42
2023-03-16T14:17:43.922Z,3.67
2023-03-16T14:20:33.101Z,4.35
2023-03-16T14:23:23.164Z,4.62
2023-03-16T14:26:16.227Z,3.92
2023-03-16T14:29:24.839Z,4.00
2023-03-16T14:32:25.885Z,4.10
2023-03-16T14:35:15.522Z,4.45
2023-03-16T14:38:25.404Z,3.95
2023-03-16T14:41:24.385Z,4.90
2023-03-16T14:44:26.811Z,4.78
2023-03-16T14:47:17.439Z,4.50
2023-03-16T14:50:07.976Z,4.50
2023-03-16T14:52:56.716Z,4.97
2023-03-16T14:55:44.011Z,4.12
2023-03-16T14:58:31.107Z,4.87
2023-03-16T15:01:19.072Z,4.78
2023-03-16T15:04:07.290Z,4.17
2023-03-16T15:06:54.640Z,4.20
2023-03-16T15:09:46.023Z,4.37
2023-03-16T15:12:34.788Z,4.17
2023-03-16T15:15:25.974Z,4.50
2023-03-16T15:18:13.112Z,4.37
2023-03-16T15:21:01.927Z,4.33
2023-03-16T15:23:49.862Z,3.67
2023-03-16T15:26:37.142Z,3.70
2023-03-16T15:29:24.292Z,4.10
2023-03-16T15:32:15.690Z,3.67
2023-03-16T15:35:04.068Z,3.80
2023-03-16T15:37:51.117Z,4.25
2023-03-16T15:40:39.793Z,3.83
2023-03-16T15:43:30.182Z,3.80
2023-03-16T15:46:17.850Z,3.22
2023-03-16T15:49:05.042Z,3.25
2023-03-16T15:51:52.430Z,3.05
2023-03-16T15:54:39.811Z,3.37
2023-03-16T15:57:27.682Z,3.15
2023-03-16T16:00:30.946Z,3.33
2023-03-16T16:03:18.635Z,3.12
2023-03-16T16:06:08.953Z,2.80
2023-03-16T16:08:56.589Z,2.95
2023-03-16T16:11:46.356Z,3.08
2023-03-16T16:14:34.761Z,2.90
2023-03-16T16:17:29.529Z,2.60
2023-03-16T16:20:18.533Z,2.40
2023-03-16T16:23:05.904Z,2.83
2023-03-16T16:25:55.292Z,2.52
2023-03-16T16:28:42.533Z,2.45
2023-03-16T16:31:31.494Z,2.12
2023-03-16T16:34:21.745Z,2.77
2023-03-16T16:37:11.044Z,2.30
2023-03-16T16:39:57.989Z,2.27
2023-03-16T16:42:47.583Z,2.67
2023-03-16T16:45:35.014Z,2.15
2023-03-16T16:48:31.961Z,2.50
2023-03-16T16:51:23.072Z,2.20
2023-03-16T16:54:15.972Z,2.60
2023-03-16T16:57:03.082Z,2.60
2023-03-16T16:59:50.963Z,2.72
2023-03-16T17:02:51.296Z,2.47
2023-03-16T17:05:38.419Z,2.65
2023-03-16T17:08:28.614Z,2.42
2023-03-16T17:11:29.058Z,2.50
2023-03-16T17:14:18.748Z,2.40
2023-03-16T17:17:08.395Z,2.22
2023-03-16T17:19:55.834Z,2.60
2023-03-16T17:22:42.976Z,2.08
2023-03-16T17:25:31.868Z,2.40
2023-03-16T17:28:19.778Z,2.05
2023-03-16T17:31:07.280Z,2.30
2023-03-16T17:33:56.932Z,2.00
2023-03-16T17:36:44.616Z,2.40
2023-03-16T17:39:33.999Z,2.40
2023-03-16T17:42:22.843Z,2.27
2023-03-16T17:45:19.468Z,2.45
2023-03-16T17:48:09.637Z,2.33
2023-03-16T17:50:56.616Z,2.70
2023-03-16T17:53:44.849Z,2.25
2023-03-16T17:56:33.886Z,2.55
2023-03-16T17:59:22.568Z,2.35
2023-03-16T18:02:27.956Z,2.35
2023-03-16T18:05:24.341Z,2.02
2023-03-16T18:08:29.617Z,2.60
2023-03-16T18:11:28.910Z,2.52
2023-03-16T18:14:36.928Z,4.28
2023-03-16T18:17:29.869Z,3.67
2023-03-16T18:20:30.851Z,3.50
2023-03-16T18:23:20.810Z,2.42
2023-03-16T18:26:08.890Z,2.47
2023-03-16T18:28:56.395Z,2.40
2023-03-16T18:31:44.855Z,2.87
2023-03-16T18:34:35.504Z,2.40
2023-03-16T18:37:25.074Z,2.42
2023-03-16T18:40:15.581Z,2.50
2023-03-16T18:43:02.527Z,2.72
2023-03-16T18:45:50.510Z,2.60
2023-03-16T18:48:37.557Z,2.72
2023-03-16T18:51:25.665Z,2.60
2023-03-16T18:54:25.158Z,2.40
2023-03-16T18:57:18.408Z,3.77
2023-03-16T19:00:06.356Z,3.10
2023-03-16T19:02:56.105Z,3.17
2023-03-16T19:05:43.329Z,2.98
2023-03-16T19:08:30.994Z,3.12
2023-03-16T19:11:18.355Z,3.35
2023-03-16T19:14:20.747Z,3.15
2023-03-16T19:17:07.785Z,3.37
2023-03-16T19:19:55.170Z,4.58
2023-03-16T19:22:43.789Z,3.30
2023-03-16T19:25:36.665Z,3.35
2023-03-16T19:28:36.748Z,3.70
2023-03-16T19:31:27.247Z,3.50
2023-03-16T19:34:18.776Z,3.80
2023-03-16T19:37:06.286Z,3.80
2023-03-16T19:39:53.515Z,4.17
2023-03-16T19:42:42.163Z,3.70
2023-03-16T19:45:35.181Z,3.65
2023-03-16T19:48:31.052Z,3.60
2023-03-16T19:51:18.461Z,3.08
2023-03-16T19:54:05.579Z,2.98
2023-03-16T19:56:53.517Z,3.27
2023-03-16T19:59:42.323Z,3.20
2023-03-16T20:02:32.529Z,3.65
2023-03-16T20:05:22.863Z,3.35
2023-03-16T20:08:27.523Z,3.60
2023-03-16T20:11:28.850Z,3.80
2023-03-16T20:14:21.883Z,2.80
2023-03-16T20:17:11.677Z,3.15
2023-03-16T20:19:58.963Z,3.37
2023-03-16T20:22:46.320Z,3.12
2023-03-16T20:25:36.140Z,3.75
2023-03-16T20:28:26.816Z,3.60
2023-03-16T20:31:22.403Z,3.75
2023-03-16T20:34:12.350Z,4.05
2023-03-16T20:37:00.375Z,3.83
2023-03-16T20:39:47.708Z,3.90
2023-03-16T20:42:36.924Z,3.85
2023-03-16T20:45:27.018Z,3.65
2023-03-16T20:48:17.564Z,3.95
2023-03-16T20:51:05.080Z,3.37
2023-03-16T20:53:52.416Z,3.80
2023-03-16T20:56:39.527Z,3.40
2023-03-16T20:59:28.102Z,3.70
2023-03-16T21:02:33.957Z,3.25
2023-03-16T21:05:21.396Z,3.10
2023-03-16T21:08:08.820Z,3.15
2023-03-16T21:10:57.002Z,3.30
2023-03-16T21:13:44.286Z,3.00
2023-03-16T21:16:31.445Z,3.10
2023-03-16T21:19:21.623Z,3.00
2023-03-16T21:22:12.345Z,3.25
2023-03-16T21:24:59.984Z,3.22
2023-03-16T21:27:51.004Z,2.87
2023-03-16T21:30:41.984Z,3.70
2023-03-16T21:33:32.455Z,3.55
2023-03-16T21:36:22.960Z,3.30
2023-03-16T21:39:13.479Z,3.70
2023-03-16T21:42:00.716Z,3.70
2023-03-16T21:44:47.791Z,3.45
2023-03-16T21:47:36.227Z,2.77
2023-03-16T21:50:26.213Z,3.30
2023-03-16T21:53:28.561Z,3.40
2023-03-16T21:56:17.553Z,3.42
2023-03-16T21:59:04.784Z,3.17
2023-03-16T22:02:01.610Z,3.60
2023-03-16T22:04:41.578Z,3.80
2023-03-16T22:07:28.810Z,3.10
2023-03-16T22:10:16.664Z,3.02
2023-03-16T22:13:06.991Z,3.22
2023-03-16T22:15:57.593Z,3.87
2023-03-16T22:18:47.883Z,3.52
2023-03-16T22:21:37.944Z,3.98
2023-03-16T22:24:28.564Z,3.83
2023-03-16T22:27:18.901Z,3.87
2023-03-16T22:30:06.310Z,3.40
2023-03-16T22:32:57.279Z,3.85
2023-03-16T22:35:44.919Z,4.40
2023-03-16T22:38:31.871Z,4.22
2023-03-16T22:41:19.419Z,3.87
2023-03-16T22:44:07.933Z,4.33
2023-03-16T22:46:55.183Z,4.60
2023-03-16T22:49:42.478Z,4.30
2023-03-16T22:52:33.207Z,4.90
2023-03-16T22:55:23.506Z,5.15
2023-03-16T22:58:17.771Z,4.78
2023-03-16T23:01:19.176Z,4.20
2023-03-16T23:04:19.742Z,3.92
2023-03-16T23:07:12.729Z,4.33
2023-03-16T23:10:00.515Z,4.55
2023-03-16T23:12:49.216Z,4.17
2023-03-16T23:15:38.243Z,4.28
2023-03-16T23:18:26.968Z,4.50
2023-03-16T23:21:18.877Z,4.80
2023-03-16T23:24:06.350Z,4.85
2023-03-16T23:26:54.548Z,4.72
2023-03-16T23:29:42.044Z,4.87
2023-03-16T23:32:29.337Z,4.42
2023-03-16T23:35:19.776Z,4.65
2023-03-16T23:38:08.271Z,5.03
2023-03-16T23:40:56.292Z,5.15
2023-03-16T23:43:46.316Z,5.22
2023-03-16T23:46:34.821Z,4.92
2023-03-16T23:49:25.181Z,5.30
2023-03-16T23:52:13.372Z,4.53
2023-03-16T23:55:01.374Z,5.47
2023-03-16T23:57:49.324Z,5.03
